Arthur Maersk — OXJH2 — position and weather

sailwx.info

Track history (hours):
 
Tides and Currents Weather Stations Pressure Air Temp Water Temp Dewpoint Dewpoint Depression Visibility Wind Speed Wind Dir Waves Ship Positions

Arthur Maersk

Last reported at 2014-Jul-23 23:23 UTC. Time now 2014-Jul-24 05:54 UTC.
Position N 40°31' W 028°51'.

Length 352 m; draft 12.7 m.

Type: Cargo ship. MMSI: 220221000.

Date/timePositionNaut miles runAvg speedWind from/ knotsBaromVisibWave heightAir tempDewpointWater temp
2014-Jul-23 23:23N 40°31' W 028°51'1719.8
2014-Jul-23 22:32N 40°29' W 028°29'1919.7
2014-Jul-23 21:33N 40°26' W 028°04'2120.1
2014-Jul-23 20:31N 40°22' W 027°37'2120.1
2014-Jul-23 19:27N 40°19' W 027°09'60319.9
2014-Jul-22 13:13N 37°52' W 014°37'7920.6
2014-Jul-22 09:23N 37°26' W 013°02'1720.9
2014-Jul-22 08:33N 37°20' W 012°42'2221.0
2014-Jul-22 07:30N 37°13' W 012°16'6320.6
2014-Jul-22 04:27N 36°51' W 011°02'1920.6
2014-Jul-22 03:33N 36°45' W 010°40'2020.3
2014-Jul-22 02:33N 36°38' W 010°17'2020.4
2014-Jul-22 01:33N 36°31' W 009°53'2020.4
2014-Jul-22 00:33N 36°24' W 009°29'2020.4
2014-Jul-21 23:34N 36°17' W 009°06'2120.5
2014-Jul-21 22:33N 36°13' W 008°40'2020.4
2014-Jul-21 21:34N 36°10' W 008°16'2020.3
2014-Jul-21 20:33N 36°08' W 007°51'520.2
2014-Jul-21 20:18N 36°07' W 007°44'1520.0
2014-Jul-21 19:33N 36°04' W 007°26'10019.3
2014-Jul-21 14:24N 36°01' W 005°23'29720.0
2014-Jul-20 23:32N 36°51' E 000°41'5818.7
2014-Jul-20 20:26N 36°59' E 001°53'1820.2
2014-Jul-20 19:33N 37°01' E 002°15'2619.9
2014-Jul-20 18:16N 37°05' E 002°47'3519.8
2014-Jul-20 16:32N 37°09' E 003°30'1919.7
2014-Jul-20 15:33N 37°13' E 003°54'2019.9
2014-Jul-20 14:34N 37°15' E 004°18'2019.9
2014-Jul-20 13:33N 37°18' E 004°43'2020.0
2014-Jul-20 12:33N 37°20' E 005°08'2019.9
2014-Jul-20 11:33N 37°23' E 005°33'2020.0
2014-Jul-20 10:33N 37°26' E 005°58'2020.0
2014-Jul-20 09:33N 37°28' E 006°23'2020.3
2014-Jul-20 08:33N 37°31' E 006°48'2420.2
2014-Jul-20 07:22N 37°34' E 007°18'3920.1
2014-Jul-20 05:27N 37°39' E 008°07'8020.4
2014-Jul-20 01:32N 37°41' E 009°47'1818.6
2014-Jul-20 00:33N 37°39' E 010°10'10620.4
2014-Jul-19 19:22N 37°01' E 012°14'1619.9
2014-Jul-19 18:33N 36°57' E 012°34'2019.7
2014-Jul-19 17:33N 36°50' E 012°57'2020.3
2014-Jul-19 16:33N 36°44' E 013°22'2020.3
2014-Jul-19 15:34N 36°38' E 013°46'2020.2
2014-Jul-19 14:33N 36°32' E 014°09'2020.4
2014-Jul-19 13:33N 36°25' E 014°33'2020.1
2014-Jul-19 12:33N 36°19' E 014°57'  
Track history (hours):
 
Tides and Currents Weather Stations Pressure Air Temp Water Temp Dewpoint Dewpoint Depression Visibility Wind Speed Wind Dir Waves Ship Positions

Arthur Maersk

Last reported at 2014-Jul-23 23:23 UTC. Time now 2014-Jul-24 05:54 UTC.
Position N 40°31' W 028°51'.

Length 352 m; draft 12.7 m.

Type: Cargo ship. MMSI: 220221000.

Date/timePositionNaut miles runAvg speedWind from/ knotsBaromVisibWave heightAir tempDewpointWater temp
2014-Jul-23 23:23N 40°31' W 028°51'1719.8
2014-Jul-23 22:32N 40°29' W 028°29'1919.7
2014-Jul-23 21:33N 40°26' W 028°04'2120.1
2014-Jul-23 20:31N 40°22' W 027°37'2120.1
2014-Jul-23 19:27N 40°19' W 027°09'60319.9
2014-Jul-22 13:13N 37°52' W 014°37'7920.6
2014-Jul-22 09:23N 37°26' W 013°02'1720.9
2014-Jul-22 08:33N 37°20' W 012°42'2221.0
2014-Jul-22 07:30N 37°13' W 012°16'6320.6
2014-Jul-22 04:27N 36°51' W 011°02'1920.6
2014-Jul-22 03:33N 36°45' W 010°40'2020.3
2014-Jul-22 02:33N 36°38' W 010°17'2020.4
2014-Jul-22 01:33N 36°31' W 009°53'2020.4
2014-Jul-22 00:33N 36°24' W 009°29'2020.4
2014-Jul-21 23:34N 36°17' W 009°06'2120.5
2014-Jul-21 22:33N 36°13' W 008°40'2020.4
2014-Jul-21 21:34N 36°10' W 008°16'2020.3
2014-Jul-21 20:33N 36°08' W 007°51'520.2
2014-Jul-21 20:18N 36°07' W 007°44'1520.0
2014-Jul-21 19:33N 36°04' W 007°26'10019.3
2014-Jul-21 14:24N 36°01' W 005°23'29720.0
2014-Jul-20 23:32N 36°51' E 000°41'5818.7
2014-Jul-20 20:26N 36°59' E 001°53'1820.2
2014-Jul-20 19:33N 37°01' E 002°15'2619.9
2014-Jul-20 18:16N 37°05' E 002°47'3519.8
2014-Jul-20 16:32N 37°09' E 003°30'1919.7
2014-Jul-20 15:33N 37°13' E 003°54'2019.9
2014-Jul-20 14:34N 37°15' E 004°18'2019.9
2014-Jul-20 13:33N 37°18' E 004°43'2020.0
2014-Jul-20 12:33N 37°20' E 005°08'2019.9
2014-Jul-20 11:33N 37°23' E 005°33'2020.0
2014-Jul-20 10:33N 37°26' E 005°58'2020.0
2014-Jul-20 09:33N 37°28' E 006°23'2020.3
2014-Jul-20 08:33N 37°31' E 006°48'2420.2
2014-Jul-20 07:22N 37°34' E 007°18'3920.1
2014-Jul-20 05:27N 37°39' E 008°07'8020.4
2014-Jul-20 01:32N 37°41' E 009°47'1818.6
2014-Jul-20 00:33N 37°39' E 010°10'10620.4
2014-Jul-19 19:22N 37°01' E 012°14'1619.9
2014-Jul-19 18:33N 36°57' E 012°34'2019.7
2014-Jul-19 17:33N 36°50' E 012°57'2020.3
2014-Jul-19 16:33N 36°44' E 013°22'2020.3
2014-Jul-19 15:34N 36°38' E 013°46'2020.2
2014-Jul-19 14:33N 36°32' E 014°09'2020.4
2014-Jul-19 13:33N 36°25' E 014°33'2020.1
2014-Jul-19 12:33N 36°19' E 014°57'  

Dump ship's entire track history